Time;durP1;ratioP1;P1;durP2;ratioP2;P2;SDS_P1;SDS_P2;PMS_P1;PMS_P2;Temp;Humidity;BMP_temperature;BMP_pressure;BME280_temperature;BME280_humidity;BME280_pressure;Samples;Min_cycle;Max_cycle;Signal;HPM_P1;HPM_P2
2023/05/26 00:01:14;;;;;;;23.55;5.30;;;10.90;99.90;;;;;;5019307;28;20772;-74
2023/05/26 00:03:44;;;;;;;24.40;4.68;;;10.90;99.90;;;;;;5019314;28;20423;-74
2023/05/26 00:06:11;;;;;;;27.58;5.57;;;10.80;99.90;;;;;;4993522;28;20949;-74
2023/05/26 00:08:38;;;;;;;18.25;4.15;;;10.80;99.90;;;;;;5018562;28;20435;-74
2023/05/26 00:11:03;;;;;;;28.05;5.57;;;10.90;99.90;;;;;;5020271;28;20408;-74
2023/05/26 00:13:29;;;;;;;24.15;5.05;;;10.80;99.90;;;;;;4994749;28;20438;-74
2023/05/26 00:15:55;;;;;;;22.73;5.13;;;10.80;99.90;;;;;;5029054;28;20462;-74
2023/05/26 00:18:20;;;;;;;23.17;4.40;;;10.80;99.90;;;;;;5030644;28;20430;-74
2023/05/26 00:20:46;;;;;;;22.03;4.47;;;10.80;99.90;;;;;;5025254;28;20816;-74
2023/05/26 00:23:11;;;;;;;27.30;5.03;;;10.80;99.90;;;;;;5030752;28;20403;-74
2023/05/26 00:25:37;;;;;;;23.43;4.93;;;10.80;99.90;;;;;;5015468;28;20408;-74
2023/05/26 00:28:03;;;;;;;22.38;4.93;;;10.80;99.90;;;;;;5012980;28;20415;-74
2023/05/26 00:30:28;;;;;;;25.47;5.77;;;10.80;99.90;;;;;;5014319;28;20747;-74
2023/05/26 00:32:54;;;;;;;25.20;4.93;;;10.80;99.90;;;;;;5035387;28;20781;-74
2023/05/26 00:35:20;;;;;;;24.67;4.97;;;10.80;99.90;;;;;;5018571;28;20518;-74
2023/05/26 00:37:46;;;;;;;22.03;4.70;;;10.80;99.90;;;;;;5035535;28;20842;-74
2023/05/26 00:40:12;;;;;;;22.20;4.63;;;10.80;99.90;;;;;;5015494;28;20420;-74
2023/05/26 00:42:37;;;;;;;24.83;5.13;;;10.80;99.90;;;;;;5030654;28;20407;-74
2023/05/26 00:45:03;;;;;;;26.03;5.50;;;10.80;99.90;;;;;;5027626;28;20550;-74
2023/05/26 00:47:29;;;;;;;27.90;4.63;;;10.80;99.90;;;;;;5012776;28;20743;-74
2023/05/26 00:49:55;;;;;;;21.95;4.68;;;10.80;99.90;;;;;;5013778;28;20936;-74
2023/05/26 00:52:21;;;;;;;20.43;4.50;;;10.80;99.90;;;;;;5017219;28;20419;-74
2023/05/26 00:54:47;;;;;;;19.65;4.38;;;10.80;99.90;;;;;;5018091;28;20472;-74
2023/05/26 00:57:13;;;;;;;25.38;4.78;;;10.80;99.90;;;;;;5017018;28;20412;-74
2023/05/26 00:59:39;;;;;;;22.70;5.07;;;10.70;99.90;;;;;;5012889;28;20421;-74
2023/05/26 01:02:05;;;;;;;25.77;4.60;;;10.70;99.90;;;;;;5001616;28;20417;-74
2023/05/26 01:04:31;;;;;;;21.33;4.53;;;10.70;99.90;;;;;;5015057;28;20864;-74
2023/05/26 01:06:57;;;;;;;23.30;5.03;;;10.70;99.90;;;;;;5015232;28;20785;-74
2023/05/26 01:09:24;;;;;;;20.90;5.20;;;10.70;99.90;;;;;;5010188;28;20470;-74
2023/05/26 01:11:49;;;;;;;20.27;4.63;;;10.70;99.90;;;;;;5010742;28;20411;-74
2023/05/26 01:14:21;;;;;;;25.63;4.80;;;10.70;99.90;;;;;;5038693;28;20428;-74
2023/05/26 01:16:59;;;;;;;23.42;4.95;;;10.70;99.90;;;;;;5020231;28;20441;-74
2023/05/26 01:19:54;;;;;;;26.30;5.13;;;10.70;99.90;;;;;;5010227;28;20414;-74
2023/05/26 01:22:48;;;;;;;28.92;5.57;;;10.70;99.90;;;;;;4989284;28;20917;-74
2023/05/26 01:25:27;;;;;;;21.00;4.70;;;10.60;99.90;;;;;;5003658;28;20498;-74
2023/05/26 01:28:15;;;;;;;24.07;4.30;;;10.70;99.90;;;;;;4989835;28;20431;-74
2023/05/26 01:30:42;;;;;;;23.48;5.10;;;10.70;99.90;;;;;;5010717;28;20485;-74
2023/05/26 01:33:08;;;;;;;25.75;5.15;;;10.70;99.90;;;;;;5014743;28;20417;-74
2023/05/26 01:35:34;;;;;;;23.58;4.55;;;10.60;99.90;;;;;;5029561;28;20654;-74
2023/05/26 01:38:01;;;;;;;23.23;4.90;;;10.70;99.90;;;;;;5009972;28;20414;-74
2023/05/26 01:40:27;;;;;;;23.00;4.97;;;10.70;99.90;;;;;;5038236;28;20753;-74
2023/05/26 01:42:58;;;;;;;23.40;4.75;;;10.70;99.90;;;;;;5029315;28;20485;-74
2023/05/26 01:45:27;;;;;;;23.15;4.60;;;10.70;99.90;;;;;;5028166;28;20465;-74
2023/05/26 01:47:58;;;;;;;20.60;4.53;;;10.60;99.90;;;;;;4993724;28;20947;-74
2023/05/26 01:50:28;;;;;;;21.50;4.78;;;10.70;99.90;;;;;;5010510;28;20808;-74
2023/05/26 01:52:57;;;;;;;21.25;4.95;;;10.70;99.90;;;;;;5010162;28;20447;-74
2023/05/26 01:55:26;;;;;;;23.25;4.35;;;10.60;99.90;;;;;;5027562;28;20521;-74
2023/05/26 01:57:53;;;;;;;22.88;4.80;;;10.60;99.90;;;;;;5001119;28;20410;-74
2023/05/26 02:00:26;;;;;;;27.27;5.27;;;10.60;99.90;;;;;;5014775;28;20415;-74
2023/05/26 02:02:52;;;;;;;25.33;4.95;;;10.70;99.90;;;;;;5008193;28;20407;-74
2023/05/26 02:05:18;;;;;;;22.55;4.53;;;10.70;99.90;;;;;;5029953;28;20501;-74
2023/05/26 02:07:45;;;;;;;28.60;5.25;;;10.60;99.90;;;;;;5019731;28;20499;-74
2023/05/26 02:10:11;;;;;;;24.15;5.28;;;10.70;99.90;;;;;;5031899;28;20409;-74
2023/05/26 02:12:36;;;;;;;25.55;5.45;;;10.70;99.90;;;;;;5012531;28;20411;-74
2023/05/26 02:15:03;;;;;;;21.03;4.53;;;10.70;99.90;;;;;;5008034;28;20403;-74
2023/05/26 02:17:28;;;;;;;25.77;4.97;;;10.70;99.90;;;;;;5031087;28;20548;-74
2023/05/26 02:19:54;;;;;;;28.20;5.47;;;10.60;99.90;;;;;;5030383;28;20489;-74
2023/05/26 02:22:19;;;;;;;21.65;4.82;;;10.60;99.90;;;;;;5031150;28;20418;-74
2023/05/26 02:24:45;;;;;;;23.73;5.30;;;10.60;99.90;;;;;;5031905;28;20402;-74
2023/05/26 02:27:11;;;;;;;27.98;5.40;;;10.60;99.90;;;;;;5031133;28;20410;-74
2023/05/26 02:29:36;;;;;;;20.17;4.27;;;10.60;99.90;;;;;;5031394;28;20745;-74
2023/05/26 02:32:02;;;;;;;26.05;4.82;;;10.60;99.90;;;;;;5013979;28;20502;-74
2023/05/26 02:34:28;;;;;;;22.30;4.43;;;10.50;99.90;;;;;;5013417;28;20433;-74
2023/05/26 02:36:55;;;;;;;21.38;4.95;;;10.60;99.90;;;;;;5031403;28;20535;-74
2023/05/26 02:39:22;;;;;;;20.10;4.47;;;10.50;99.90;;;;;;5013900;28;20410;-74
2023/05/26 02:41:48;;;;;;;27.15;5.13;;;10.50;99.90;;;;;;5031343;28;20916;-74
2023/05/26 02:44:13;;;;;;;20.40;4.15;;;10.50;99.90;;;;;;5013477;28;20514;-74
2023/05/26 02:46:40;;;;;;;25.30;5.00;;;10.50;99.90;;;;;;4996931;28;20411;-74
2023/05/26 02:49:06;;;;;;;21.13;4.63;;;10.50;99.90;;;;;;5012966;28;20450;-74
2023/05/26 02:51:33;;;;;;;22.17;4.68;;;10.50;99.90;;;;;;5013302;28;21004;-74
2023/05/26 02:53:59;;;;;;;19.90;4.55;;;10.50;99.90;;;;;;5013083;28;20410;-74
2023/05/26 02:56:25;;;;;;;23.80;4.70;;;10.50;99.90;;;;;;5030724;28;20431;-74
2023/05/26 02:58:51;;;;;;;20.50;4.72;;;10.50;99.90;;;;;;5030789;28;20423;-74
2023/05/26 03:01:16;;;;;;;23.30;4.73;;;10.50;99.90;;;;;;5012989;28;20425;-74
2023/05/26 03:03:42;;;;;;;25.38;4.93;;;10.50;99.90;;;;;;5029923;28;20920;-74
2023/05/26 03:06:08;;;;;;;22.85;4.45;;;10.50;99.90;;;;;;5030280;28;20461;-74
2023/05/26 03:08:34;;;;;;;22.03;4.30;;;10.50;99.90;;;;;;5030272;28;20839;-74
2023/05/26 03:11:00;;;;;;;25.75;4.45;;;10.40;99.90;;;;;;5030309;28;20407;-74
2023/05/26 03:13:25;;;;;;;24.40;5.03;;;10.40;99.90;;;;;;5018826;28;20820;-74
2023/05/26 03:15:52;;;;;;;19.30;4.47;;;10.40;99.90;;;;;;5021385;28;20943;-74
2023/05/26 03:18:17;;;;;;;25.30;4.65;;;10.40;99.90;;;;;;5009692;28;20432;-74
2023/05/26 03:20:46;;;;;;;20.70;4.43;;;10.50;99.90;;;;;;5012177;28;20426;-69
2023/05/26 03:23:16;;;;;;;21.60;3.97;;;10.50;99.90;;;;;;5029866;28;20407;-72
2023/05/26 03:25:42;;;;;;;21.65;4.85;;;10.50;99.90;;;;;;5012016;28;20415;-73
2023/05/26 03:28:08;;;;;;;23.60;4.20;;;10.40;99.90;;;;;;5007348;28;20420;-73
2023/05/26 03:30:33;;;;;;;25.97;5.07;;;10.40;99.90;;;;;;5033132;28;20835;-73
2023/05/26 03:33:01;;;;;;;24.50;4.85;;;10.40;99.90;;;;;;5035673;28;20411;-73
2023/05/26 03:35:26;;;;;;;21.88;4.82;;;10.40;99.90;;;;;;5011625;28;20431;-73
2023/05/26 03:37:52;;;;;;;24.38;5.18;;;10.40;99.90;;;;;;5029974;28;20434;-73
2023/05/26 03:40:18;;;;;;;23.03;4.77;;;10.40;99.90;;;;;;5029158;28;20399;-73
2023/05/26 03:42:44;;;;;;;22.33;4.60;;;10.40;99.90;;;;;;5029015;28;20784;-73
2023/05/26 03:45:10;;;;;;;24.30;4.50;;;10.40;99.90;;;;;;5018830;28;20428;-74
2023/05/26 03:47:35;;;;;;;23.80;4.82;;;10.50;99.90;;;;;;5028915;28;20461;-74
2023/05/26 03:50:01;;;;;;;25.33;4.73;;;10.50;99.90;;;;;;5011627;28;20411;-74
2023/05/26 03:52:27;;;;;;;22.40;4.88;;;10.50;99.90;;;;;;5019819;28;20443;-74
2023/05/26 03:54:52;;;;;;;27.23;5.28;;;10.50;99.90;;;;;;5022611;28;20416;-74
2023/05/26 03:57:18;;;;;;;24.00;4.57;;;10.50;99.90;;;;;;5017943;28;20445;-74
2023/05/26 03:59:44;;;;;;;23.20;4.57;;;10.50;99.90;;;;;;5029074;28;20465;-74
2023/05/26 04:02:09;;;;;;;21.63;5.17;;;10.50;99.90;;;;;;5037934;28;20751;-74
2023/05/26 04:04:35;;;;;;;27.23;4.78;;;10.50;99.90;;;;;;5015906;28;20411;-74
2023/05/26 04:07:01;;;;;;;24.07;4.90;;;10.50;99.90;;;;;;5013468;28;20892;-73
2023/05/26 04:09:26;;;;;;;28.35;5.53;;;10.50;99.90;;;;;;5014605;28;20412;-74
2023/05/26 04:11:52;;;;;;;24.60;4.90;;;10.50;99.90;;;;;;5028125;28;21264;-74
2023/05/26 04:14:18;;;;;;;24.67;4.83;;;10.50;99.90;;;;;;5015036;28;20403;-74
2023/05/26 04:16:43;;;;;;;20.73;4.40;;;10.50;99.90;;;;;;5029003;28;20521;-74
2023/05/26 04:19:09;;;;;;;23.67;4.90;;;10.60;99.90;;;;;;5017774;28;20527;-74
2023/05/26 04:21:36;;;;;;;22.92;4.28;;;10.60;99.90;;;;;;5034595;28;20824;-74
2023/05/26 04:24:02;;;;;;;25.17;4.60;;;10.70;99.90;;;;;;5032989;28;20423;-74
2023/05/26 04:26:33;;;;;;;24.20;4.68;;;10.60;99.90;;;;;;4995328;28;20417;-74
2023/05/26 04:29:02;;;;;;;22.73;4.40;;;10.70;99.90;;;;;;5014423;28;20990;-74
2023/05/26 04:31:29;;;;;;;22.95;4.45;;;10.70;99.90;;;;;;5035749;28;20411;-74
2023/05/26 04:33:56;;;;;;;25.92;5.00;;;10.70;99.90;;;;;;5030918;28;20407;-74
2023/05/26 04:36:23;;;;;;;25.13;4.53;;;10.80;99.90;;;;;;5030085;28;20949;-74
2023/05/26 04:38:49;;;;;;;22.73;4.28;;;10.80;99.90;;;;;;5035683;28;20422;-74
2023/05/26 04:41:15;;;;;;;19.15;4.03;;;10.90;99.90;;;;;;5028177;28;20419;-74
2023/05/26 04:43:43;;;;;;;21.23;4.38;;;10.90;99.90;;;;;;5028824;28;20936;-74
2023/05/26 04:46:10;;;;;;;24.20;4.53;;;10.90;99.90;;;;;;5035742;28;20480;-74
2023/05/26 04:48:36;;;;;;;22.75;4.65;;;11.00;99.90;;;;;;5034131;28;20534;-74
2023/05/26 04:51:03;;;;;;;25.58;5.05;;;11.00;99.90;;;;;;5013315;28;20417;-73
2023/05/26 04:53:29;;;;;;;23.83;4.80;;;11.10;99.90;;;;;;5030139;28;20422;-75
2023/05/26 04:55:56;;;;;;;22.50;4.25;;;11.20;99.90;;;;;;5035640;28;20437;-75
2023/05/26 04:58:22;;;;;;;22.17;4.68;;;11.20;99.90;;;;;;5016391;28;20497;-75
2023/05/26 05:00:48;;;;;;;22.17;4.23;;;11.30;99.90;;;;;;5033523;28;20821;-74
2023/05/26 05:03:14;;;;;;;23.25;4.85;;;11.40;99.90;;;;;;5033182;28;20476;-74
2023/05/26 05:05:39;;;;;;;25.75;4.13;;;11.40;99.90;;;;;;5037195;28;20458;-74
2023/05/26 05:08:05;;;;;;;20.10;4.37;;;11.40;99.90;;;;;;5031057;28;20406;-74
2023/05/26 05:10:30;;;;;;;23.90;5.05;;;11.50;99.90;;;;;;5026915;28;20403;-74
2023/05/26 05:12:56;;;;;;;19.73;4.57;;;11.50;99.90;;;;;;5034515;28;20422;-75
2023/05/26 05:15:22;;;;;;;25.27;4.75;;;11.60;99.90;;;;;;5038153;28;20889;-74
2023/05/26 05:17:47;;;;;;;21.73;4.47;;;11.60;99.90;;;;;;5030665;28;20403;-75
2023/05/26 05:20:13;;;;;;;22.17;4.30;;;11.60;99.90;;;;;;5010587;28;20399;-75
2023/05/26 05:22:39;;;;;;;18.73;3.83;;;11.60;99.90;;;;;;5027892;28;20490;-75
2023/05/26 05:25:05;;;;;;;18.30;4.07;;;11.70;99.90;;;;;;5028976;28;20408;-74
2023/05/26 05:27:30;;;;;;;21.83;4.13;;;11.70;99.90;;;;;;4994464;28;20419;-73
2023/05/26 05:29:56;;;;;;;17.42;3.83;;;11.70;99.90;;;;;;5027286;28;20498;-73
2023/05/26 05:32:22;;;;;;;22.17;4.10;;;11.70;99.90;;;;;;5024337;28;20465;-74
2023/05/26 05:34:47;;;;;;;23.02;4.60;;;11.70;99.90;;;;;;5027531;28;21214;-75
2023/05/26 05:37:13;;;;;;;21.00;4.17;;;11.70;99.90;;;;;;5009801;28;20427;-75
2023/05/26 05:39:39;;;;;;;20.45;4.18;;;11.70;99.90;;;;;;5027631;28;20841;-75
2023/05/26 05:42:05;;;;;;;18.33;4.00;;;11.80;99.90;;;;;;5022684;28;20445;-75
2023/05/26 05:44:30;;;;;;;19.70;4.17;;;11.80;99.90;;;;;;5029368;28;20537;-75
2023/05/26 05:46:56;;;;;;;21.33;4.78;;;11.80;99.90;;;;;;5008757;28;20552;-75
2023/05/26 05:49:22;;;;;;;19.17;4.50;;;11.90;99.90;;;;;;5027402;28;20403;-75
2023/05/26 05:51:47;;;;;;;15.75;3.78;;;11.90;99.90;;;;;;5028261;28;20399;-75
2023/05/26 05:54:13;;;;;;;19.93;4.33;;;11.90;99.90;;;;;;5011888;28;20514;-75
2023/05/26 05:56:38;;;;;;;20.00;3.90;;;12.00;99.90;;;;;;5022394;28;20427;-74
2023/05/26 05:59:05;;;;;;;17.63;3.63;;;12.10;99.90;;;;;;5026034;28;21014;-75
2023/05/26 06:01:30;;;;;;;19.30;4.10;;;12.10;99.90;;;;;;5010447;28;20407;-75
2023/05/26 06:03:56;;;;;;;18.90;3.97;;;12.10;99.90;;;;;;5024277;28;20407;-75
2023/05/26 06:06:22;;;;;;;19.00;4.00;;;12.10;99.90;;;;;;5028070;28;20453;-75
2023/05/26 06:08:47;;;;;;;17.30;3.73;;;12.10;99.90;;;;;;5020943;28;20420;-75
2023/05/26 06:11:13;;;;;;;18.60;3.40;;;12.10;99.90;;;;;;5028835;28;20489;-75
2023/05/26 06:13:38;;;;;;;16.33;3.50;;;12.10;99.90;;;;;;5003853;28;20419;-75
2023/05/26 06:16:05;;;;;;;18.20;3.50;;;12.10;99.90;;;;;;5027273;28;20517;-75
2023/05/26 06:18:30;;;;;;;16.48;3.50;;;12.10;99.90;;;;;;5032695;28;21046;-75
2023/05/26 06:20:56;;;;;;;18.30;4.25;;;12.10;99.90;;;;;;5032482;28;20434;-75
2023/05/26 06:23:23;;;;;;;15.20;3.63;;;12.20;99.90;;;;;;5027113;28;20406;-75
2023/05/26 06:25:48;;;;;;;17.38;3.97;;;12.20;99.90;;;;;;4998912;28;20430;-75
2023/05/26 06:28:14;;;;;;;18.40;3.53;;;12.20;99.90;;;;;;5028483;28;20407;-74
2023/05/26 06:30:39;;;;;;;22.40;4.40;;;12.20;99.90;;;;;;5036594;28;20841;-74
2023/05/26 06:33:05;;;;;;;18.40;3.63;;;12.20;99.90;;;;;;5035406;28;20470;-75
2023/05/26 06:35:31;;;;;;;17.67;3.40;;;12.20;99.90;;;;;;5029891;28;20452;-75
2023/05/26 06:37:56;;;;;;;16.40;3.47;;;12.20;99.90;;;;;;5015283;28;20959;-75
2023/05/26 06:40:22;;;;;;;17.88;3.55;;;12.20;99.90;;;;;;5015945;28;20405;-75
2023/05/26 06:42:48;;;;;;;17.85;3.65;;;12.20;99.90;;;;;;5030436;28;20821;-75
2023/05/26 06:45:13;;;;;;;17.37;3.27;;;12.20;99.90;;;;;;5036777;28;20488;-75
2023/05/26 06:47:40;;;;;;;17.43;3.53;;;12.20;99.90;;;;;;5030602;28;20403;-75
2023/05/26 06:50:06;;;;;;;17.00;3.78;;;12.30;99.90;;;;;;5039535;28;20813;-75
2023/05/26 06:52:32;;;;;;;12.98;3.03;;;12.40;99.90;;;;;;5015647;28;20422;-75
2023/05/26 06:54:57;;;;;;;15.55;3.60;;;12.40;99.90;;;;;;5028353;28;20401;-75
2023/05/26 06:57:23;;;;;;;15.43;2.80;;;12.40;99.90;;;;;;5007061;28;20494;-75
2023/05/26 06:59:49;;;;;;;14.33;3.10;;;12.40;99.90;;;;;;5028126;28;20977;-75
2023/05/26 07:02:14;;;;;;;14.37;2.90;;;12.50;99.90;;;;;;5038244;28;20415;-75
2023/05/26 07:04:41;;;;;;;15.15;3.10;;;12.50;99.90;;;;;;5012872;28;20416;-75
2023/05/26 07:07:07;;;;;;;15.10;3.03;;;12.50;99.90;;;;;;5022287;28;20413;-75
2023/05/26 07:09:33;;;;;;;17.17;3.17;;;12.60;99.90;;;;;;5017369;28;20498;-75
2023/05/26 07:11:58;;;;;;;17.13;3.60;;;12.60;99.90;;;;;;5020757;28;20812;-75
2023/05/26 07:14:24;;;;;;;16.00;3.30;;;12.70;99.90;;;;;;5021781;28;20921;-75
2023/05/26 07:16:50;;;;;;;13.63;2.70;;;12.70;99.90;;;;;;5030394;28;20463;-75
2023/05/26 07:19:15;;;;;;;13.00;3.07;;;12.80;99.90;;;;;;5012300;28;20443;-75
2023/05/26 07:21:41;;;;;;;14.20;3.55;;;12.80;99.90;;;;;;5029643;28;20429;-75
2023/05/26 07:24:07;;;;;;;15.90;2.87;;;12.90;99.90;;;;;;5030526;28;20490;-75
2023/05/26 07:26:32;;;;;;;15.52;3.42;;;13.00;99.90;;;;;;5012587;28;20465;-75
2023/05/26 07:28:58;;;;;;;14.27;2.77;;;13.00;99.90;;;;;;5024489;28;20402;-75
2023/05/26 07:31:23;;;;;;;17.90;3.35;;;13.00;99.90;;;;;;5011962;28;20426;-75
2023/05/26 07:33:50;;;;;;;16.83;2.80;;;13.10;99.90;;;;;;5030007;28;20750;-75
2023/05/26 07:36:15;;;;;;;16.03;3.17;;;13.20;99.90;;;;;;5029820;28;21834;-75
2023/05/26 07:38:41;;;;;;;15.77;2.92;;;13.20;99.90;;;;;;5012007;28;20412;-75
2023/05/26 07:41:07;;;;;;;15.18;3.58;;;13.30;99.90;;;;;;5030152;28;20416;-75
2023/05/26 07:43:32;;;;;;;13.73;3.30;;;13.30;99.90;;;;;;5012326;28;20411;-75
2023/05/26 07:45:58;;;;;;;11.52;2.78;;;13.40;99.90;;;;;;5030926;28;20504;-75
2023/05/26 07:48:25;;;;;;;13.75;2.55;;;13.40;99.90;;;;;;5012833;28;20414;-75
2023/05/26 07:50:50;;;;;;;12.85;2.90;;;13.40;99.90;;;;;;5012278;28;20925;-75
2023/05/26 07:53:16;;;;;;;10.20;2.93;;;13.50;99.90;;;;;;5029424;28;20437;-75
2023/05/26 07:55:42;;;;;;;12.52;2.80;;;13.50;99.90;;;;;;5011613;28;20425;-75
2023/05/26 07:58:10;;;;;;;15.03;2.93;;;13.60;99.90;;;;;;5025882;28;20485;-75
2023/05/26 08:00:36;;;;;;;10.98;2.50;;;13.70;99.90;;;;;;5030461;28;20526;-75
2023/05/26 08:03:01;;;;;;;13.70;2.85;;;13.70;99.90;;;;;;5029799;28;20460;-75
2023/05/26 08:05:27;;;;;;;17.85;3.47;;;13.80;99.90;;;;;;4995594;28;20415;-75
2023/05/26 08:07:53;;;;;;;14.27;2.90;;;13.80;99.90;;;;;;5035576;28;20411;-75
2023/05/26 08:10:19;;;;;;;13.90;2.67;;;13.80;99.90;;;;;;5037167;28;20419;-75
2023/05/26 08:12:44;;;;;;;11.60;2.65;;;13.80;99.90;;;;;;5032696;28;20403;-75
2023/05/26 08:15:15;;;;;;;15.20;2.90;;;13.90;99.90;;;;;;5029040;28;20477;-75
2023/05/26 08:17:41;;;;;;;14.15;2.78;;;13.90;99.90;;;;;;5011828;28;20794;-75
2023/05/26 08:20:08;;;;;;;14.43;3.20;;;14.00;99.90;;;;;;5003874;28;20490;-75
2023/05/26 08:22:35;;;;;;;16.23;3.03;;;14.00;99.90;;;;;;5011248;28;20419;-75
2023/05/26 08:25:00;;;;;;;14.40;2.83;;;14.10;99.90;;;;;;5028630;28;20913;-75
2023/05/26 08:27:26;;;;;;;13.47;2.70;;;14.00;99.90;;;;;;5029716;28;20477;-75
2023/05/26 08:29:52;;;;;;;14.87;2.97;;;14.10;99.90;;;;;;5029731;28;20421;-75
2023/05/26 08:32:17;;;;;;;10.10;2.50;;;14.10;99.90;;;;;;5011428;28;20916;-75
2023/05/26 08:34:44;;;;;;;13.43;2.97;;;14.10;99.90;;;;;;5029388;28;20421;-75
2023/05/26 08:37:14;;;;;;;14.35;3.03;;;14.30;99.90;;;;;;5028982;28;20439;-75
2023/05/26 08:39:40;;;;;;;12.50;3.20;;;14.40;99.90;;;;;;5012163;28;20760;-75
2023/05/26 08:42:12;;;;;;;13.85;3.22;;;14.50;99.90;;;;;;5029347;28;20434;-75
2023/05/26 08:44:38;;;;;;;14.73;3.00;;;14.50;99.90;;;;;;5029988;28;20411;-76
2023/05/26 08:47:04;;;;;;;16.73;3.03;;;14.60;99.90;;;;;;5010627;28;20465;-75
2023/05/26 08:49:39;;;;;;;14.80;2.88;;;14.60;99.90;;;;;;5027395;28;20415;-75
2023/05/26 08:52:13;;;;;;;15.83;3.50;;;14.60;99.90;;;;;;5011358;28;20419;-75
2023/05/26 08:54:42;;;;;;;12.77;2.97;;;14.70;99.90;;;;;;5022763;28;20418;-75
2023/05/26 08:57:10;;;;;;;11.23;2.60;;;14.80;99.90;;;;;;4992667;28;20448;-75
2023/05/26 08:59:37;;;;;;;15.63;2.97;;;14.90;99.90;;;;;;5010932;28;20427;-75
2023/05/26 09:02:03;;;;;;;11.50;2.33;;;15.00;99.90;;;;;;5027664;28;20485;-75
2023/05/26 09:04:30;;;;;;;11.33;2.43;;;15.10;99.90;;;;;;5028050;28;20406;-75
2023/05/26 09:06:56;;;;;;;12.00;2.97;;;15.10;99.90;;;;;;5027288;28;20406;-75
2023/05/26 09:09:22;;;;;;;10.88;2.55;;;15.20;99.90;;;;;;5010673;28;20797;-75
2023/05/26 09:11:47;;;;;;;12.75;2.40;;;15.30;99.90;;;;;;5028038;28;20924;-75
2023/05/26 09:14:16;;;;;;;13.00;2.80;;;15.40;99.90;;;;;;5028304;28;20410;-75
2023/05/26 09:16:42;;;;;;;12.77;2.83;;;15.50;99.90;;;;;;5027973;28;20466;-75
2023/05/26 09:19:13;;;;;;;11.63;2.55;;;15.60;99.90;;;;;;5010247;28;20460;-75
2023/05/26 09:21:45;;;;;;;14.13;3.05;;;15.60;99.90;;;;;;5028344;28;20411;-76
2023/05/26 09:24:15;;;;;;;13.02;2.85;;;15.70;99.90;;;;;;5027901;28;20414;-75
2023/05/26 09:26:41;;;;;;;12.32;2.45;;;15.90;99.90;;;;;;5003544;28;20415;-76
2023/05/26 09:29:06;;;;;;;12.57;2.90;;;16.10;99.80;;;;;;5027606;28;20410;-75
2023/05/26 09:31:45;;;;;;;13.48;2.88;;;16.30;99.90;;;;;;5037796;28;20560;-76
2023/05/26 09:34:12;;;;;;;11.07;2.72;;;16.60;99.90;;;;;;5028264;28;20483;-76
2023/05/26 09:36:38;;;;;;;11.85;2.67;;;16.80;99.00;;;;;;5005565;28;20437;-76
2023/05/26 09:39:08;;;;;;;9.98;2.85;;;17.00;98.60;;;;;;5028077;28;20534;-76
2023/05/26 09:41:39;;;;;;;12.32;2.83;;;17.10;98.60;;;;;;5034069;28;20422;-76
2023/05/26 09:44:09;;;;;;;13.32;3.17;;;17.20;95.80;;;;;;5027551;28;20461;-76
2023/05/26 09:46:36;;;;;;;17.47;3.37;;;17.30;97.90;;;;;;5009728;28;20419;-76
2023/05/26 09:49:15;;;;;;;17.45;4.63;;;17.40;96.70;;;;;;5027843;28;20426;-76
2023/05/26 09:51:42;;;;;;;12.30;3.10;;;17.30;96.80;;;;;;5004309;28;20430;-76
2023/05/26 09:54:11;;;;;;;12.98;3.15;;;17.40;97.20;;;;;;5004213;28;20411;-76
2023/05/26 09:57:02;;;;;;;12.23;2.90;;;17.60;97.00;;;;;;5023759;28;21151;-76
2023/05/26 09:59:36;;;;;;;12.18;2.83;;;17.80;95.80;;;;;;5021732;28;21303;-76
2023/05/26 10:02:11;;;;;;;11.77;2.67;;;17.90;96.20;;;;;;5027989;28;20502;-76
2023/05/26 10:04:37;;;;;;;14.68;3.17;;;18.10;95.90;;;;;;5027951;28;20421;-76
2023/05/26 10:07:04;;;;;;;12.02;2.83;;;18.20;95.30;;;;;;5009700;28;20399;-76
2023/05/26 10:09:31;;;;;;;12.05;3.03;;;18.20;95.90;;;;;;5027238;28;20399;-76
2023/05/26 10:11:58;;;;;;;12.23;3.13;;;18.40;95.40;;;;;;5008316;28;20416;-76
2023/05/26 10:14:24;;;;;;;13.52;2.83;;;18.70;95.00;;;;;;5016279;28;21096;-76
2023/05/26 10:16:50;;;;;;;12.45;3.28;;;18.90;95.30;;;;;;5026899;28;20433;-76
2023/05/26 10:19:17;;;;;;;15.50;3.37;;;19.00;93.60;;;;;;5030529;28;20403;-76
2023/05/26 10:21:48;;;;;;;14.90;3.00;;;19.00;94.30;;;;;;5031572;28;20965;-76
2023/05/26 10:24:34;;;;;;;14.45;3.38;;;19.10;93.90;;;;;;5030732;28;20537;-76
2023/05/26 10:27:28;;;;;;;15.18;3.40;;;19.10;94.00;;;;;;4991251;28;20498;-76
2023/05/26 10:30:08;;;;;;;11.37;2.70;;;19.10;91.90;;;;;;5011993;28;20407;-76
2023/05/26 10:32:49;;;;;;;12.40;3.38;;;19.10;93.20;;;;;;5013433;28;20764;-76
2023/05/26 10:35:31;;;;;;;12.07;3.45;;;19.20;92.50;;;;;;5004732;28;20444;-76
2023/05/26 10:38:02;;;;;;;;;;;19.10;91.80;;;;;;5011753;28;20091;-76
2023/05/26 10:40:41;;;;;;;;;;;19.10;92.30;;;;;;5013541;28;19928;-76
2023/05/26 10:43:22;;;;;;;;;;;19.30;92.30;;;;;;5011550;28;19921;-76
2023/05/26 10:45:51;;;;;;;;;;;19.40;92.60;;;;;;5012571;28;19965;-76
2023/05/26 10:48:17;;;;;;;;;;;19.50;92.30;;;;;;5014667;28;19937;-76
2023/05/26 10:50:54;;;;;;;;;;;19.70;92.20;;;;;;5007913;28;19925;-76
2023/05/26 10:53:25;;;;;;;;;;;19.90;92.20;;;;;;5008112;28;20072;-76
2023/05/26 10:56:03;;;;;;;;;;;20.20;92.50;;;;;;5008246;28;19925;-76
2023/05/26 10:58:29;;;;;;;;;;;20.30;91.40;;;;;;5011752;28;20398;-76
2023/05/26 11:00:58;;;;;;;;;;;20.30;91.50;;;;;;4994233;28;19928;-76
2023/05/26 11:03:47;;;;;;;11.15;2.60;;;20.30;91.60;;;;;;5009477;28;19922;-76
2023/05/26 11:06:15;;;;;;;17.38;3.72;;;20.30;90.90;;;;;;5003330;28;20941;-76
2023/05/26 11:08:46;;;;;;;14.20;3.75;;;20.30;90.60;;;;;;5002977;28;20423;-76
2023/05/26 11:11:22;;;;;;;13.10;3.63;;;20.30;89.80;;;;;;5008306;28;20959;-77
2023/05/26 11:13:52;;;;;;;15.02;3.90;;;20.20;90.60;;;;;;5008639;28;20455;-76
2023/05/26 11:16:24;;;;;;;;;;;20.30;91.20;;;;;;5009640;28;20053;-76
2023/05/26 11:18:51;;;;;;;;;;;20.40;90.90;;;;;;5011607;28;19969;-76
2023/05/26 11:21:17;;;;;;;;;;;20.50;90.90;;;;;;5012919;28;20004;-77
2023/05/26 11:23:44;;;;;;;;;;;20.80;91.50;;;;;;5018621;28;19922;-76
2023/05/26 11:26:15;;;;;;;;;;;21.10;90.80;;;;;;5017913;28;19925;-76
2023/05/26 11:28:41;;;;;;;;;;;21.10;88.70;;;;;;5019280;28;20039;-76
2023/05/26 11:31:28;;;;;;;;;;;21.00;88.70;;;;;;5019694;28;19925;-76
2023/05/26 11:33:55;;;;;;;;;;;21.00;88.80;;;;;;5015386;28;19921;-76
2023/05/26 11:36:20;;;;;;;;;;;21.00;90.40;;;;;;5035842;28;19920;-76
2023/05/26 11:38:47;;;;;;;;;;;21.00;89.10;;;;;;5026329;28;19975;-77
2023/05/26 11:41:15;;;;;;;;;;;21.20;87.20;;;;;;5042994;28;19928;-76
2023/05/26 11:43:43;;;;;;;;;;;21.20;84.40;;;;;;5043442;28;19970;-76
2023/05/26 11:46:09;;;;;;;;;;;21.10;84.80;;;;;;5039631;28;19975;-76
2023/05/26 11:48:37;;;;;;;;;;;21.20;88.80;;;;;;5039262;28;19996;-76
2023/05/26 11:51:06;;;;;;;;;;;21.60;86.80;;;;;;5044033;28;19960;-77
2023/05/26 11:53:32;;;;;;;;;;;21.80;84.40;;;;;;5042657;28;19921;-76
2023/05/26 11:56:05;;;;;;;;;;;21.80;83.50;;;;;;5044368;28;19921;-76
2023/05/26 11:58:35;;;;;;;;;;;21.70;83.30;;;;;;5042177;28;19921;-77
2023/05/26 12:01:01;;;;;;;;;;;21.70;83.70;;;;;;5005213;28;19920;-76
2023/05/26 12:03:27;;;;;;;;;;;21.90;84.70;;;;;;5013170;28;19960;-76
2023/05/26 12:06:03;;;;;;;;;;;22.00;82.20;;;;;;5021979;28;19979;-77
2023/05/26 12:08:29;;;;;;;;;;;22.10;84.40;;;;;;5037474;28;20316;-76
2023/05/26 12:10:54;;;;;;;;;;;22.10;81.60;;;;;;5034803;28;19980;-76
2023/05/26 12:13:26;;;;;;;;;;;22.10;81.10;;;;;;5031340;28;20000;-77
2023/05/26 12:15:52;;;;;;;;;;;22.00;82.60;;;;;;5030618;28;19917;-77
2023/05/26 12:18:21;;;;;;;;;;;22.00;83.40;;;;;;5030991;28;19921;-77
2023/05/26 12:20:47;;;;;;;;;;;22.00;84.60;;;;;;5013110;28;19921;-77
2023/05/26 12:23:22;;;;;;;;;;;21.80;82.70;;;;;;5036444;28;20418;-76
2023/05/26 12:25:48;;;;;;;;;;;21.70;85.10;;;;;;5010363;28;19928;-76
2023/05/26 12:28:13;;;;;;;;;;;21.80;86.50;;;;;;5012146;28;19933;-76
2023/05/26 12:30:39;;;;;;;;;;;21.80;85.40;;;;;;5028416;28;19921;-77
2023/05/26 12:33:04;;;;;;;;;;;21.50;84.80;;;;;;5009177;28;19928;-76
2023/05/26 12:35:30;;;;;;;;;;;21.30;85.60;;;;;;5030340;28;20004;-76
2023/05/26 12:37:55;;;;;;;;;;;21.10;84.50;;;;;;5012201;28;19928;-76
2023/05/26 12:40:21;;;;;;;;;;;20.90;83.90;;;;;;5011811;28;19921;-76
2023/05/26 12:42:46;;;;;;;;;;;20.70;85.10;;;;;;5013836;28;19921;-77
2023/05/26 12:45:12;;;;;;;;;;;20.60;86.00;;;;;;5020895;28;19921;-76
2023/05/26 12:47:38;;;;;;;;;;;20.30;86.10;;;;;;5026691;28;19925;-76
2023/05/26 12:50:04;;;;;;;;;;;20.10;86.70;;;;;;5030912;28;20367;-77
2023/05/26 12:52:30;;;;;;;;;;;19.90;87.00;;;;;;5013330;28;19928;-77